Time;durP1;ratioP1;P1;durP2;ratioP2;P2;SDS_P1;SDS_P2;PMS_P1;PMS_P2;Temp;Humidity;BMP_temperature;BMP_pressure;BME280_temperature;BME280_humidity;BME280_pressure;Samples;Min_cycle;Max_cycle;Signal;HPM_P1;HPM_P2
2024/02/12 00:01:45;;;;;;;44.78;17.63;;;6.90;99.90;;;;;;4985384;28;20093;-72
2024/02/12 00:04:12;;;;;;;49.50;17.27;;;6.80;99.90;;;;;;5001699;28;20045;-72
2024/02/12 00:06:38;;;;;;;32.95;16.63;;;6.80;99.90;;;;;;5001086;28;20092;-72
2024/02/12 00:09:04;;;;;;;39.60;18.70;;;6.80;99.90;;;;;;5001982;28;20042;-72
2024/02/12 00:11:30;;;;;;;46.38;18.88;;;6.70;99.90;;;;;;4984625;28;20377;-72
2024/02/12 00:13:56;;;;;;;48.40;17.75;;;6.70;99.90;;;;;;5001965;28;20057;-73
2024/02/12 00:16:23;;;;;;;41.67;18.77;;;6.60;99.90;;;;;;5000428;28;20129;-73
2024/02/12 00:18:51;;;;;;;47.03;17.95;;;6.60;99.90;;;;;;4999277;28;20278;-72
2024/02/12 00:21:18;;;;;;;51.42;18.55;;;6.50;99.90;;;;;;4985587;28;20538;-72
2024/02/12 00:23:46;;;;;;;48.30;18.25;;;6.50;99.90;;;;;;4968465;28;20100;-72
2024/02/12 00:26:12;;;;;;;41.15;18.73;;;6.50;99.90;;;;;;5001970;28;20129;-72
2024/02/12 00:28:38;;;;;;;49.38;18.92;;;6.50;99.90;;;;;;5000713;28;20140;-72
2024/02/12 00:31:04;;;;;;;51.72;19.80;;;6.60;99.90;;;;;;5001109;28;20137;-72
2024/02/12 00:33:30;;;;;;;49.83;18.30;;;6.60;99.90;;;;;;4968710;28;20398;-72
2024/02/12 00:35:58;;;;;;;57.60;20.05;;;6.60;99.90;;;;;;4968823;28;20041;-72
2024/02/12 00:38:24;;;;;;;60.67;19.52;;;6.60;99.90;;;;;;5001329;28;20188;-73
2024/02/12 00:40:49;;;;;;;54.13;18.83;;;6.70;99.90;;;;;;4983790;28;20552;-73
2024/02/12 00:43:15;;;;;;;43.63;18.60;;;6.60;99.90;;;;;;4984699;28;20046;-72
2024/02/12 00:45:42;;;;;;;53.55;20.08;;;6.60;99.90;;;;;;4983750;28;20052;-73
2024/02/12 00:48:08;;;;;;;67.22;18.63;;;6.70;99.90;;;;;;4985207;28;20054;-73
2024/02/12 00:50:35;;;;;;;51.63;20.02;;;6.70;99.90;;;;;;4995505;28;20065;-72
2024/02/12 00:53:04;;;;;;;60.70;20.42;;;6.70;99.90;;;;;;4984635;28;20069;-72
2024/02/12 00:55:29;;;;;;;48.05;19.00;;;6.70;99.90;;;;;;4984505;28;20046;-73
2024/02/12 00:57:55;;;;;;;52.25;17.92;;;6.80;99.90;;;;;;4984760;28;20081;-72
2024/02/12 01:00:22;;;;;;;51.75;18.27;;;6.80;99.90;;;;;;5000302;28;20485;-73
2024/02/12 01:02:48;;;;;;;42.28;17.90;;;6.90;99.90;;;;;;4981795;28;20038;-73
2024/02/12 01:05:14;;;;;;;57.53;18.00;;;6.80;99.90;;;;;;4968440;28;20483;-73
2024/02/12 01:07:41;;;;;;;57.58;18.67;;;6.90;99.90;;;;;;4984244;28;20545;-73
2024/02/12 01:10:07;;;;;;;49.08;16.42;;;7.00;99.90;;;;;;4984807;28;20038;-73
2024/02/12 01:12:35;;;;;;;56.58;18.63;;;6.90;99.90;;;;;;4983565;28;20052;-73
2024/02/12 01:15:02;;;;;;;47.05;17.33;;;6.90;99.90;;;;;;4984831;28;20037;-73
2024/02/12 01:17:29;;;;;;;51.22;17.13;;;6.90;99.90;;;;;;4984653;28;20551;-73
2024/02/12 01:19:56;;;;;;;55.78;17.38;;;6.90;99.90;;;;;;4999912;28;20045;-73
2024/02/12 01:22:22;;;;;;;51.03;17.27;;;7.00;99.90;;;;;;5000381;28;20496;-74
2024/02/12 01:24:49;;;;;;;37.53;17.50;;;7.00;99.90;;;;;;4998495;28;20115;-74
2024/02/12 01:27:16;;;;;;;40.72;16.25;;;7.00;99.90;;;;;;4983914;28;20050;-74
2024/02/12 01:29:43;;;;;;;36.72;14.23;;;6.90;99.90;;;;;;4983178;28;20042;-73
2024/02/12 01:32:09;;;;;;;39.58;14.48;;;6.80;99.90;;;;;;4984846;28;20042;-73
2024/02/12 01:34:36;;;;;;;44.22;14.43;;;6.80;99.90;;;;;;5003496;28;20045;-73
2024/02/12 01:37:02;;;;;;;33.28;13.50;;;6.80;99.90;;;;;;5002733;28;20045;-74
2024/02/12 01:39:27;;;;;;;44.55;14.35;;;6.80;99.90;;;;;;4987466;28;20321;-74
2024/02/12 01:41:53;;;;;;;35.05;13.15;;;6.80;99.90;;;;;;4970473;28;20508;-73
2024/02/12 01:44:20;;;;;;;31.67;13.93;;;6.80;99.90;;;;;;4978022;28;20050;-73
2024/02/12 01:46:48;;;;;;;27.02;10.85;;;6.90;99.90;;;;;;4983828;28;20149;-73
2024/02/12 01:49:19;;;;;;;24.90;9.85;;;6.90;99.90;;;;;;5002487;28;20558;-74
2024/02/12 01:51:48;;;;;;;27.33;9.82;;;7.00;99.90;;;;;;5002673;28;20054;-73
2024/02/12 01:54:17;;;;;;;31.33;12.07;;;7.00;99.90;;;;;;5002857;28;20045;-73
2024/02/12 01:56:45;;;;;;;28.83;11.55;;;7.00;99.90;;;;;;5002671;28;20292;-73
2024/02/12 01:59:18;;;;;;;37.53;11.98;;;7.00;99.90;;;;;;4986188;28;20381;-73
2024/02/12 02:01:53;;;;;;;31.10;11.15;;;7.10;99.90;;;;;;5003028;28;20132;-74
2024/02/12 02:04:19;;;;;;;22.15;10.35;;;7.00;99.90;;;;;;4986728;28;20050;-73
2024/02/12 02:06:55;;;;;;;35.75;11.18;;;7.10;99.90;;;;;;5002698;28;20099;-73
2024/02/12 02:09:21;;;;;;;28.00;11.52;;;7.00;99.90;;;;;;4985377;28;20141;-73
2024/02/12 02:11:47;;;;;;;28.63;10.80;;;7.00;99.90;;;;;;5001680;28;20137;-73
2024/02/12 02:14:13;;;;;;;28.17;12.52;;;7.00;99.90;;;;;;4986650;28;20148;-74
2024/02/12 02:16:39;;;;;;;43.80;13.85;;;7.00;99.90;;;;;;4986322;28;20049;-73
2024/02/12 02:19:09;;;;;;;31.95;11.82;;;7.10;99.90;;;;;;5001370;28;20034;-74
2024/02/12 02:21:36;;;;;;;45.13;12.63;;;7.10;99.90;;;;;;4971055;28;20144;-73
2024/02/12 02:24:03;;;;;;;29.23;12.23;;;7.10;99.90;;;;;;4951319;28;1478780;-73
2024/02/12 02:26:28;;;;;;;38.88;13.20;;;7.00;99.90;;;;;;4987441;28;20112;-73
2024/02/12 02:28:56;;;;;;;33.65;12.15;;;7.00;99.90;;;;;;4981544;28;20038;-73
2024/02/12 02:31:22;;;;;;;35.17;13.40;;;7.00;99.90;;;;;;4984669;28;20764;-73
2024/02/12 02:33:48;;;;;;;43.00;12.23;;;7.00;99.90;;;;;;5003291;28;20077;-73
2024/02/12 02:36:14;;;;;;;39.67;14.20;;;7.00;99.90;;;;;;4987589;28;20076;-73
2024/02/12 02:38:40;;;;;;;38.05;13.32;;;6.90;99.90;;;;;;5003303;28;20038;-73
2024/02/12 02:41:05;;;;;;;34.70;13.90;;;6.90;99.90;;;;;;4969587;28;20088;-73
2024/02/12 02:43:31;;;;;;;35.42;12.88;;;6.90;99.90;;;;;;4970179;28;20034;-73
2024/02/12 02:45:59;;;;;;;34.63;13.18;;;7.00;99.90;;;;;;4954309;28;20042;-73
2024/02/12 02:48:28;;;;;;;39.38;13.00;;;6.90;99.90;;;;;;4956929;28;20092;-73
2024/02/12 02:50:54;;;;;;;45.30;13.73;;;6.90;99.90;;;;;;4987062;28;20046;-73
2024/02/12 02:53:20;;;;;;;48.03;12.57;;;7.00;99.90;;;;;;4971535;28;20057;-73
2024/02/12 02:55:46;;;;;;;33.28;13.20;;;7.00;99.90;;;;;;4970315;28;20058;-73
2024/02/12 02:58:12;;;;;;;32.20;12.68;;;6.90;99.90;;;;;;4988989;28;20050;-73
2024/02/12 03:00:37;;;;;;;46.75;13.55;;;6.90;99.90;;;;;;4970367;28;20150;-73
2024/02/12 03:03:04;;;;;;;38.03;13.48;;;7.00;99.90;;;;;;4980104;28;20140;-73
2024/02/12 03:05:30;;;;;;;36.78;12.75;;;6.90;99.90;;;;;;5002630;28;20042;-73
2024/02/12 03:07:56;;;;;;;26.65;11.27;;;7.00;99.90;;;;;;4979030;28;20504;-73
2024/02/12 03:10:22;;;;;;;26.45;10.75;;;6.90;99.90;;;;;;4984030;28;20404;-73
2024/02/12 03:12:48;;;;;;;25.85;11.38;;;6.90;99.90;;;;;;4986015;28;20132;-73
2024/02/12 03:15:15;;;;;;;34.63;12.32;;;6.90;99.90;;;;;;4986262;28;20511;-73
2024/02/12 03:17:42;;;;;;;29.95;10.75;;;7.00;99.90;;;;;;5003056;28;20057;-73
2024/02/12 03:20:09;;;;;;;28.52;11.80;;;7.00;99.90;;;;;;4991291;28;20089;-73
2024/02/12 03:22:39;;;;;;;37.08;11.70;;;7.00;99.90;;;;;;4985946;28;20071;-73
2024/02/12 03:25:08;;;;;;;30.85;11.98;;;7.00;99.90;;;;;;4989214;28;20041;-73
2024/02/12 03:27:34;;;;;;;34.55;11.55;;;7.00;99.90;;;;;;4989987;28;20444;-73
2024/02/12 03:30:00;;;;;;;26.55;11.13;;;7.00;99.90;;;;;;5005118;28;20053;-73
2024/02/12 03:32:26;;;;;;;35.92;12.25;;;7.00;99.90;;;;;;4989453;28;20088;-73
2024/02/12 03:34:52;;;;;;;23.20;11.52;;;7.10;99.90;;;;;;4989130;28;20069;-73
2024/02/12 03:37:19;;;;;;;23.92;11.52;;;7.00;99.90;;;;;;5005182;28;20487;-73
2024/02/12 03:39:48;;;;;;;36.22;13.88;;;7.00;99.90;;;;;;4988552;28;20038;-73
2024/02/12 03:42:13;;;;;;;42.58;13.38;;;7.00;99.90;;;;;;5022833;28;20379;-73
2024/02/12 03:44:42;;;;;;;38.40;13.25;;;7.00;99.90;;;;;;5022694;28;20049;-73
2024/02/12 03:47:08;;;;;;;36.28;13.55;;;6.90;99.90;;;;;;4982040;28;20312;-73
2024/02/12 04:00:40;;;;;;;29.60;12.60;;;6.90;99.90;;;;;;5004882;28;20053;-73
2024/02/12 04:03:08;;;;;;;21.38;10.88;;;6.90;99.90;;;;;;5012928;28;20049;-73
2024/02/12 04:05:35;;;;;;;29.50;11.40;;;6.90;99.90;;;;;;4983054;28;20048;-73
2024/02/12 04:08:04;;;;;;;27.00;11.80;;;6.90;99.90;;;;;;5015783;28;20037;-72
2024/02/12 04:10:31;;;;;;;30.47;11.63;;;6.90;99.90;;;;;;5008671;28;20674;-73
2024/02/12 04:12:57;;;;;;;21.48;9.80;;;6.90;99.90;;;;;;4975008;28;20555;-73
2024/02/12 04:15:23;;;;;;;30.70;12.35;;;6.90;99.90;;;;;;4988563;28;20077;-73
2024/02/12 04:17:50;;;;;;;26.63;12.40;;;6.90;99.90;;;;;;5004098;28;20486;-73
2024/02/12 04:20:17;;;;;;;30.02;12.10;;;7.00;99.90;;;;;;5004719;28;20061;-72
2024/02/12 04:22:47;;;;;;;26.55;12.15;;;6.90;99.90;;;;;;5003568;28;20092;-72
2024/02/12 04:25:13;;;;;;;28.85;12.30;;;7.00;99.90;;;;;;5004429;28;20068;-73
2024/02/12 04:27:41;;;;;;;39.63;14.23;;;6.90;99.90;;;;;;4988471;28;20534;-73
2024/02/12 04:30:10;;;;;;;31.85;11.65;;;7.00;99.90;;;;;;4972316;28;20037;-73
2024/02/12 04:32:36;;;;;;;31.30;13.30;;;6.90;99.90;;;;;;4987964;28;20523;-73
2024/02/12 04:35:03;;;;;;;42.92;13.15;;;7.00;99.90;;;;;;4974233;28;20363;-73
2024/02/12 04:37:33;;;;;;;33.75;13.18;;;7.00;99.90;;;;;;4972937;28;20057;-73
2024/02/12 04:39:59;;;;;;;31.23;13.50;;;7.00;99.90;;;;;;4988353;28;20033;-73
2024/02/12 04:42:26;;;;;;;35.70;12.48;;;6.90;99.90;;;;;;5003419;28;20779;-73
2024/02/12 04:44:52;;;;;;;32.45;12.57;;;6.90;99.90;;;;;;5001483;28;20443;-72
2024/02/12 04:47:18;;;;;;;31.48;14.05;;;7.00;99.90;;;;;;4987281;28;20041;-72
2024/02/12 04:49:44;;;;;;;36.05;13.77;;;7.00;99.90;;;;;;5004796;28;20057;-73
2024/02/12 04:52:10;;;;;;;32.20;14.07;;;6.90;99.90;;;;;;4987860;28;20060;-72
2024/02/12 04:54:36;;;;;;;27.23;13.43;;;7.00;99.90;;;;;;4972100;28;20504;-72
2024/02/12 04:57:02;;;;;;;36.83;14.55;;;7.00;99.90;;;;;;4988036;28;20045;-72
2024/02/12 04:59:28;;;;;;;24.73;11.85;;;7.00;99.90;;;;;;4986753;28;20598;-73
2024/02/12 05:01:54;;;;;;;24.98;11.57;;;6.90;99.90;;;;;;5006591;28;20404;-73
2024/02/12 05:04:20;;;;;;;37.47;15.40;;;6.90;99.90;;;;;;5003781;28;20060;-72
2024/02/12 05:06:46;;;;;;;35.42;14.40;;;7.00;99.90;;;;;;5011796;28;20049;-73
2024/02/12 05:09:12;;;;;;;32.47;13.98;;;6.90;99.90;;;;;;4986800;28;20048;-73
2024/02/12 05:11:39;;;;;;;29.05;13.52;;;6.90;99.90;;;;;;5004001;28;20084;-73
2024/02/12 05:14:05;;;;;;;34.47;13.93;;;7.00;99.90;;;;;;5003637;28;20049;-73
2024/02/12 05:16:32;;;;;;;39.67;13.25;;;6.90;99.90;;;;;;4987830;28;20041;-72
2024/02/12 05:24:31;;;;;;;35.28;13.02;;;6.90;99.90;;;;;;5004242;28;20723;-72
2024/02/12 05:26:58;;;;;;;42.65;14.38;;;6.90;99.90;;;;;;4987681;28;20068;-72
2024/02/12 05:29:24;;;;;;;35.05;13.30;;;6.90;99.90;;;;;;5004056;28;20403;-73
2024/02/12 05:31:52;;;;;;;29.60;12.63;;;6.90;99.90;;;;;;4991584;28;20057;-73
2024/02/12 05:34:23;;;;;;;34.17;13.88;;;6.90;99.90;;;;;;5008430;28;20037;-73
2024/02/12 05:36:49;;;;;;;;;;;6.90;99.90;;;;;;5002150;28;20049;-73
2024/02/12 05:39:16;;;;;;;35.22;13.38;;;6.90;99.90;;;;;;4986931;28;19971;-73
2024/02/12 05:41:43;;;;;;;30.75;12.65;;;6.90;99.90;;;;;;4995999;28;20445;-72
2024/02/12 05:44:08;;;;;;;35.65;13.68;;;6.90;99.90;;;;;;4970884;28;20492;-73
2024/02/12 05:46:34;;;;;;;30.08;12.80;;;6.90;99.90;;;;;;5004113;28;20416;-72
2024/02/12 05:49:00;;;;;;;30.30;12.27;;;6.90;99.90;;;;;;5003557;28;20045;-73
2024/02/12 05:51:26;;;;;;;32.80;13.95;;;6.90;99.90;;;;;;4987053;28;20057;-73
2024/02/12 05:53:53;;;;;;;33.92;13.48;;;6.90;99.90;;;;;;4987546;28;20057;-73
2024/02/12 05:56:21;;;;;;;32.60;13.40;;;6.90;99.90;;;;;;5002783;28;20422;-73
2024/02/12 05:58:47;;;;;;;33.20;13.07;;;6.80;99.90;;;;;;5002934;28;20584;-73
2024/02/12 06:01:13;;;;;;;32.00;13.40;;;6.80;99.90;;;;;;5002775;28;20050;-73
2024/02/12 06:03:39;;;;;;;35.72;13.48;;;6.80;99.90;;;;;;4971192;28;20515;-72
2024/02/12 06:06:05;;;;;;;41.78;14.90;;;6.90;99.90;;;;;;4971115;28;20120;-73
2024/02/12 06:08:31;;;;;;;36.58;14.43;;;6.90;99.90;;;;;;5002298;28;20132;-72
2024/02/12 06:10:57;;;;;;;35.65;13.82;;;6.90;99.90;;;;;;4971797;28;20127;-73
2024/02/12 06:13:22;;;;;;;29.58;13.45;;;6.80;99.90;;;;;;5003614;28;20051;-73
2024/02/12 06:15:48;;;;;;;36.65;14.45;;;6.80;99.90;;;;;;5003749;28;20104;-73
2024/02/12 06:18:15;;;;;;;34.85;14.13;;;6.70;99.90;;;;;;4988428;28;20116;-72
2024/02/12 06:20:41;;;;;;;29.55;12.82;;;6.70;99.90;;;;;;5007295;28;20463;-73
2024/02/12 06:23:07;;;;;;;31.25;13.40;;;6.70;99.90;;;;;;5006587;28;20061;-73
2024/02/12 06:25:33;;;;;;;32.58;12.75;;;6.60;99.90;;;;;;5006535;28;20670;-73
2024/02/12 06:28:02;;;;;;;34.70;14.63;;;6.60;99.90;;;;;;4989841;28;20051;-72
2024/02/12 06:30:28;;;;;;;32.38;13.25;;;6.50;99.90;;;;;;4990036;28;20072;-72
2024/02/12 06:32:53;;;;;;;31.52;14.88;;;6.50;99.90;;;;;;4990603;28;20088;-73
2024/02/12 06:35:19;;;;;;;30.67;13.38;;;6.50;99.90;;;;;;4990135;28;20081;-72
2024/02/12 06:37:46;;;;;;;37.17;14.38;;;6.50;99.90;;;;;;5007564;28;20139;-72
2024/02/12 06:40:13;;;;;;;34.05;13.13;;;6.40;99.90;;;;;;5006113;28;20152;-72
2024/02/12 06:42:39;;;;;;;30.70;13.90;;;6.40;99.90;;;;;;4990221;28;20045;-72
2024/02/12 06:45:05;;;;;;;38.85;14.63;;;6.40;99.90;;;;;;5006221;28;20132;-72
2024/02/12 06:47:32;;;;;;;39.22;14.75;;;6.50;99.90;;;;;;4974094;28;20116;-72
2024/02/12 06:49:57;;;;;;;35.88;13.95;;;6.50;99.90;;;;;;5001337;28;20049;-72
2024/02/12 06:52:23;;;;;;;37.70;14.30;;;6.50;99.90;;;;;;5005634;28;20395;-73
2024/02/12 06:54:49;;;;;;;30.90;14.55;;;6.50;99.90;;;;;;5006558;28;20038;-72
2024/02/12 06:57:15;;;;;;;38.03;15.45;;;6.50;99.90;;;;;;4974401;28;20475;-72
2024/02/12 06:59:42;;;;;;;38.22;15.98;;;6.50;99.90;;;;;;4989409;28;20500;-72
2024/02/12 07:02:09;;;;;;;30.02;15.45;;;6.60;99.90;;;;;;4989640;28;20184;-72
2024/02/12 07:04:35;;;;;;;38.60;14.40;;;6.50;99.90;;;;;;5005951;28;20114;-73
2024/02/12 07:07:01;;;;;;;27.70;13.43;;;6.50;99.90;;;;;;4973529;28;20049;-72
2024/02/12 07:09:26;;;;;;;35.17;14.95;;;6.50;99.90;;;;;;5005395;28;20053;-73
2024/02/12 07:11:52;;;;;;;34.85;13.82;;;6.60;99.90;;;;;;5005895;28;20057;-72
2024/02/12 07:14:19;;;;;;;29.63;13.63;;;6.60;99.90;;;;;;5005954;28;20467;-72
2024/02/12 07:16:45;;;;;;;36.90;14.82;;;6.60;99.90;;;;;;4990165;28;20045;-73
2024/02/12 07:19:11;;;;;;;42.83;16.33;;;6.70;99.90;;;;;;5005907;28;20526;-72
2024/02/12 07:21:39;;;;;;;39.40;16.15;;;6.70;99.90;;;;;;5005541;28;20045;-72
2024/02/12 07:24:05;;;;;;;38.33;16.25;;;6.70;99.90;;;;;;4985969;28;20057;-72
2024/02/12 07:26:31;;;;;;;37.92;15.43;;;6.70;99.90;;;;;;5001994;28;20531;-72
2024/02/12 07:28:57;;;;;;;47.25;15.45;;;6.70;99.90;;;;;;4969140;28;20124;-72
2024/02/12 07:31:23;;;;;;;35.53;14.40;;;6.70;99.90;;;;;;4984691;28;20052;-72
2024/02/12 07:33:49;;;;;;;37.88;15.25;;;6.70;99.90;;;;;;5002926;28;20416;-72
2024/02/12 07:36:15;;;;;;;34.03;14.82;;;6.70;99.90;;;;;;5002320;28;20046;-72
2024/02/12 07:38:42;;;;;;;33.15;15.13;;;6.70;99.90;;;;;;5002178;28;20267;-72
2024/02/12 07:41:08;;;;;;;40.70;15.30;;;6.70;99.90;;;;;;4986065;28;20137;-72
2024/02/12 07:43:35;;;;;;;42.70;16.17;;;6.80;99.90;;;;;;5018271;28;20196;-72
2024/02/12 07:46:03;;;;;;;31.33;14.55;;;6.80;99.90;;;;;;5002217;28;20053;-72
2024/02/12 07:48:29;;;;;;;36.50;15.43;;;6.80;99.90;;;;;;4969886;28;20152;-72
2024/02/12 07:50:55;;;;;;;38.80;15.57;;;6.80;99.90;;;;;;4986703;28;20117;-72
2024/02/12 07:53:25;;;;;;;38.97;15.68;;;6.90;99.90;;;;;;5001148;28;20190;-72
2024/02/12 07:55:54;;;;;;;36.60;15.27;;;6.80;99.90;;;;;;5005390;28;20083;-73
2024/02/12 07:58:21;;;;;;;38.05;15.25;;;6.90;99.90;;;;;;4981616;28;20977;-73
2024/02/12 08:00:48;;;;;;;43.88;15.55;;;6.90;99.90;;;;;;5001185;28;20116;-72
2024/02/12 08:03:18;;;;;;;35.15;13.88;;;6.90;99.90;;;;;;4984218;28;20049;-72
2024/02/12 08:05:48;;;;;;;44.03;15.55;;;6.90;99.90;;;;;;4998123;28;20053;-72
2024/02/12 08:08:13;;;;;;;45.10;15.82;;;6.90;99.90;;;;;;4998754;28;20062;-72
2024/02/12 08:10:40;;;;;;;38.75;15.52;;;7.00;99.90;;;;;;4999642;28;20134;-72
2024/02/12 08:13:06;;;;;;;30.13;14.13;;;7.00;99.90;;;;;;5000391;28;20075;-72
2024/02/12 08:15:32;;;;;;;36.85;14.75;;;7.00;99.90;;;;;;4996309;28;20042;-72
2024/02/12 08:17:58;;;;;;;39.60;14.45;;;7.00;99.90;;;;;;5001305;28;20108;-72
2024/02/12 08:20:25;;;;;;;44.53;14.90;;;7.00;99.90;;;;;;5000610;28;20424;-72
2024/02/12 08:22:54;;;;;;;41.45;15.02;;;7.00;99.90;;;;;;5001236;28;20050;-72
2024/02/12 08:25:20;;;;;;;26.65;14.02;;;7.00;99.90;;;;;;5001790;28;20097;-72
2024/02/12 08:27:46;;;;;;;36.80;13.25;;;7.10;99.90;;;;;;5019883;28;20142;-72
2024/02/12 08:30:14;;;;;;;31.92;14.82;;;7.10;99.90;;;;;;4988637;28;20547;-72
2024/02/12 08:32:40;;;;;;;29.23;14.02;;;7.00;99.90;;;;;;5015241;28;20050;-73
2024/02/12 08:35:07;;;;;;;29.13;12.70;;;7.10;99.90;;;;;;5017236;28;20219;-72
2024/02/12 08:37:34;;;;;;;27.00;11.80;;;7.10;99.90;;;;;;4996874;28;20489;-72
2024/02/12 08:40:00;;;;;;;29.50;13.02;;;7.10;99.90;;;;;;5018277;28;20041;-72
2024/02/12 08:42:26;;;;;;;18.08;8.88;;;7.10;99.90;;;;;;5012119;28;20055;-72
2024/02/12 08:44:52;;;;;;;15.80;7.60;;;7.10;99.90;;;;;;5018626;28;20049;-73
2024/02/12 08:47:18;;;;;;;18.38;8.52;;;7.10;99.90;;;;;;5020464;28;20449;-73
2024/02/12 08:49:45;;;;;;;33.83;11.20;;;7.10;99.90;;;;;;5019444;28;20128;-72
2024/02/12 08:52:11;;;;;;;29.30;13.10;;;7.20;99.90;;;;;;5013811;28;20050;-72
2024/02/12 08:54:37;;;;;;;30.55;13.07;;;7.20;99.90;;;;;;5003266;28;20057;-72
2024/02/12 08:57:05;;;;;;;26.05;11.38;;;7.30;99.90;;;;;;5011649;28;20041;-72
2024/02/12 08:59:32;;;;;;;24.45;11.02;;;7.30;99.90;;;;;;4995796;28;20038;-73
2024/02/12 09:01:58;;;;;;;28.65;12.00;;;7.40;99.90;;;;;;5008491;28;20033;-73
2024/02/12 09:04:24;;;;;;;35.60;14.60;;;7.50;99.90;;;;;;4993070;28;20061;-73
2024/02/12 09:06:49;;;;;;;22.95;11.30;;;7.50;99.90;;;;;;5006433;28;20565;-73
2024/02/12 09:09:16;;;;;;;15.35;7.95;;;7.50;99.90;;;;;;4973782;28;20077;-72
2024/02/12 09:11:45;;;;;;;27.13;11.63;;;7.40;99.90;;;;;;4986832;28;20127;-72
2024/02/12 09:14:11;;;;;;;28.20;10.00;;;7.40;99.90;;;;;;5020542;28;20060;-72
2024/02/12 09:16:38;;;;;;;28.92;10.40;;;7.40;99.90;;;;;;4987609;28;20415;-72
2024/02/12 09:19:05;;;;;;;26.08;12.68;;;7.50;99.90;;;;;;4987526;28;20095;-73
2024/02/12 09:21:32;;;;;;;24.13;10.35;;;7.60;99.90;;;;;;5004322;28;20519;-72
2024/02/12 09:23:57;;;;;;;27.65;12.10;;;7.70;99.90;;;;;;5003024;28;20535;-73
2024/02/12 09:26:25;;;;;;;30.83;11.55;;;7.90;99.90;;;;;;4971670;28;20073;-72
2024/02/12 09:28:52;;;;;;;25.70;9.15;;;8.00;99.90;;;;;;5003183;28;20399;-72
2024/02/12 09:31:18;;;;;;;18.33;7.53;;;8.20;99.90;;;;;;4987956;28;20491;-73
2024/02/12 09:33:45;;;;;;;32.13;11.45;;;8.20;99.90;;;;;;4986116;28;20042;-72
2024/02/12 09:36:12;;;;;;;32.05;10.65;;;8.20;99.90;;;;;;4987618;28;20050;-72
2024/02/12 09:38:37;;;;;;;11.60;4.20;;;8.30;99.90;;;;;;4987915;28;20152;-72
2024/02/12 09:41:04;;;;;;;13.10;4.90;;;8.30;99.90;;;;;;4987484;28;20257;-72
2024/02/12 09:43:33;;;;;;;31.13;9.05;;;8.40;99.90;;;;;;5004271;28;20056;-73
2024/02/12 09:46:05;;;;;;;15.55;7.68;;;8.50;99.90;;;;;;4995713;28;20060;-72
2024/02/12 09:48:31;;;;;;;20.67;9.40;;;8.60;99.90;;;;;;4995363;28;20088;-71
2024/02/12 09:50:58;;;;;;;15.40;8.10;;;8.50;99.90;;;;;;4993282;28;20045;-72
2024/02/12 09:53:26;;;;;;;26.02;10.05;;;8.50;99.90;;;;;;5011853;28;20088;-72
2024/02/12 09:55:56;;;;;;;19.65;9.38;;;8.50;99.90;;;;;;5000958;28;20053;-72
2024/02/12 09:58:21;;;;;;;13.63;6.30;;;8.50;99.90;;;;;;5015563;28;20112;-72
2024/02/12 10:00:47;;;;;;;26.98;10.45;;;8.50;99.90;;;;;;5001420;28;20195;-72
2024/02/12 10:03:13;;;;;;;26.00;8.63;;;8.50;99.90;;;;;;5007281;28;20111;-73
2024/02/12 10:05:43;;;;;;;29.40;12.55;;;8.60;99.90;;;;;;5015254;28;20049;-72
2024/02/12 10:08:26;;;;;;;25.25;9.48;;;8.60;99.90;;;;;;4997635;28;20392;-72
2024/02/12 10:10:52;;;;;;;20.13;9.60;;;8.60;99.90;;;;;;5006684;28;20553;-72
2024/02/12 10:13:22;;;;;;;6.22;2.70;;;8.70;99.90;;;;;;5007284;28;20060;-72
2024/02/12 10:15:51;;;;;;;20.83;8.90;;;8.60;99.90;;;;;;5005167;28;20411;-72
2024/02/12 10:18:17;;;;;;;15.68;6.72;;;8.50;99.90;;;;;;4994436;28;20045;-72
2024/02/12 10:20:44;;;;;;;4.63;3.30;;;8.50;99.90;;;;;;5015258;28;20510;-72
2024/02/12 10:23:13;;;;;;;19.30;8.48;;;8.50;99.90;;;;;;4977363;28;20072;-72
2024/02/12 10:25:45;;;;;;;19.27;7.55;;;8.50;99.90;;;;;;5003045;28;20057;-72
2024/02/12 10:28:13;;;;;;;10.25;4.43;;;8.60;99.90;;;;;;4986629;28;20057;-72
2024/02/12 10:30:43;;;;;;;11.90;3.95;;;8.60;99.90;;;;;;5003439;28;20077;-72
2024/02/12 10:33:11;;;;;;;24.38;8.20;;;8.60;99.90;;;;;;4987073;28;20117;-72
2024/02/12 10:35:39;;;;;;;14.15;4.93;;;8.60;99.90;;;;;;4993980;28;20041;-72
2024/02/12 10:38:08;;;;;;;20.88;8.52;;;8.70;99.90;;;;;;4983441;28;20041;-72
2024/02/12 10:40:41;;;;;;;18.83;8.48;;;8.70;99.90;;;;;;4968788;28;20049;-72
2024/02/12 10:43:09;;;;;;;18.65;7.60;;;8.80;99.90;;;;;;5002760;28;20042;-72
2024/02/12 10:45:35;;;;;;;18.05;8.23;;;8.80;99.90;;;;;;4986333;28;20413;-72
2024/02/12 10:48:02;;;;;;;14.95;4.53;;;8.80;99.90;;;;;;5002594;28;20050;-72
2024/02/12 10:50:29;;;;;;;18.90;8.45;;;8.80;99.90;;;;;;4986314;28;20073;-71
2024/02/12 10:52:55;;;;;;;22.38;6.65;;;8.80;99.90;;;;;;5003157;28;20046;-72
2024/02/12 10:55:22;;;;;;;21.10;6.25;;;8.80;99.90;;;;;;4986878;28;20045;-73
2024/02/12 10:57:48;;;;;;;11.90;5.80;;;8.70;99.90;;;;;;4986632;28;20046;-72
2024/02/12 11:00:23;;;;;;;21.52;7.22;;;8.80;99.90;;;;;;4986821;28;20483;-71
2024/02/12 11:02:50;;;;;;;17.15;6.97;;;8.70;99.90;;;;;;4985981;28;20797;-72
2024/02/12 11:05:22;;;;;;;12.18;3.72;;;8.70;99.90;;;;;;5002729;28;20072;-72
2024/02/12 11:07:59;;;;;;;19.73;6.55;;;8.70;99.90;;;;;;5000952;28;20136;-72
2024/02/12 11:10:31;;;;;;;19.33;6.90;;;8.70;99.90;;;;;;5002507;28;20567;-71
2024/02/12 11:13:03;;;;;;;8.02;3.85;;;8.80;99.90;;;;;;4986064;28;20081;-72
2024/02/12 11:15:29;;;;;;;13.60;7.38;;;8.80;99.90;;;;;;5002706;28;20137;-72
2024/02/12 11:17:55;;;;;;;13.38;6.60;;;8.80;99.90;;;;;;5002143;28;20141;-71
2024/02/12 11:20:23;;;;;;;17.27;6.95;;;8.80;99.90;;;;;;4990673;28;20130;-71
2024/02/12 11:22:52;;;;;;;10.35;5.32;;;8.90;99.90;;;;;;5000456;28;20045;-72
2024/02/12 11:25:18;;;;;;;8.40;3.78;;;9.00;99.90;;;;;;5002362;28;20058;-72
2024/02/12 11:27:52;;;;;;;13.65;3.50;;;8.90;99.90;;;;;;4985021;28;20053;-71
2024/02/12 11:30:21;;;;;;;10.73;5.47;;;8.90;99.90;;;;;;5001828;28;20284;-72
2024/02/12 11:32:48;;;;;;;13.35;5.93;;;8.90;99.90;;;;;;4984871;28;20052;-71
2024/02/12 11:35:15;;;;;;;8.30;2.70;;;8.90;99.90;;;;;;5002175;28;20049;-72
2024/02/12 11:37:43;;;;;;;12.45;4.38;;;9.00;99.90;;;;;;5003479;28;20382;-71
2024/02/12 11:40:13;;;;;;;10.23;4.88;;;8.90;99.90;;;;;;4985373;28;20062;-72
2024/02/12 11:42:54;;;;;;;;;;;8.90;99.90;;;;;;4986413;28;20061;-71
2024/02/12 11:45:22;;;;;;;7.82;3.58;;;8.90;99.90;;;;;;5002100;28;19932;-71
2024/02/12 11:47:49;;;;;;;13.05;5.00;;;9.00;99.90;;;;;;5000973;28;20088;-71
2024/02/12 11:50:26;;;;;;;10.20;4.32;;;9.00;99.90;;;;;;4999546;28;20049;-71
2024/02/12 11:52:57;;;;;;;9.15;4.18;;;9.10;99.90;;;;;;4994456;28;20054;-71
2024/02/12 11:55:26;;;;;;;5.63;2.80;;;9.10;99.90;;;;;;5001606;28;20089;-71
2024/02/12 11:57:52;;;;;;;13.68;4.75;;;9.10;99.90;;;;;;5000469;28;20124;-71
2024/02/12 12:00:21;;;;;;;13.23;5.05;;;9.10;99.90;;;;;;4998418;28;20048;-71
2024/02/12 12:02:51;;;;;;;12.50;5.50;;;9.20;99.90;;;;;;4985755;28;20289;-70
2024/02/12 12:05:25;;;;;;;10.40;4.93;;;9.20;99.90;;;;;;5001199;28;20330;-70
2024/02/12 12:07:52;;;;;;;9.13;4.55;;;9.20;99.90;;;;;;5001232;28;20382;-70
2024/02/12 12:10:22;;;;;;;11.10;3.83;;;9.20;99.90;;;;;;4984908;28;20264;-71
2024/02/12 12:12:48;;;;;;;11.25;3.92;;;9.20;99.90;;;;;;5001377;28;20080;-71
2024/02/12 12:15:14;;;;;;;16.42;5.43;;;9.20;99.90;;;;;;5000024;28;20124;-70
2024/02/12 12:17:41;;;;;;;17.13;4.80;;;9.20;99.90;;;;;;4985362;28;20103;-70
2024/02/12 12:20:12;;;;;;;10.27;3.63;;;9.20;99.90;;;;;;5000329;28;20060;-70
2024/02/12 12:22:39;;;;;;;14.00;4.18;;;9.10;99.90;;;;;;4985817;28;20050;-70
2024/02/12 12:25:06;;;;;;;11.50;3.70;;;9.10;99.90;;;;;;5001085;28;20056;-70
2024/02/12 12:27:33;;;;;;;8.07;2.90;;;9.10;99.90;;;;;;5002496;28;20068;-70
2024/02/12 12:30:09;;;;;;;9.68;3.05;;;9.00;99.90;;;;;;5001794;28;20045;-71
2024/02/12 12:32:35;;;;;;;8.95;2.83;;;9.10;99.90;;;;;;5001268;28;20073;-71
2024/02/12 12:35:01;;;;;;;7.35;3.70;;;9.10;99.90;;;;;;5001644;28;20099;-70
2024/02/12 12:37:31;;;;;;;9.65;3.35;;;9.20;99.90;;;;;;4985166;28;20097;-70
2024/02/12 12:39:56;;;;;;;12.45;3.22;;;9.20;99.90;;;;;;4985833;28;20050;-71
2024/02/12 12:42:22;;;;;;;8.95;3.00;;;9.20;99.90;;;;;;5000457;28;20050;-70
2024/02/12 12:44:51;;;;;;;8.93;2.63;;;9.20;99.90;;;;;;5001636;28;20053;-70
2024/02/12 12:47:18;;;;;;;11.73;3.13;;;9.20;99.90;;;;;;5000944;28;20054;-70
2024/02/12 12:49:44;;;;;;;8.43;2.70;;;9.20;99.90;;;;;;4985129;28;20464;-70
2024/02/12 12:52:10;;;;;;;8.63;2.90;;;9.20;99.90;;;;;;5000073;28;20060;-71
2024/02/12 12:54:39;;;;;;;5.70;2.03;;;9.20;99.90;;;;;;5000989;28;20064;-71
2024/02/12 12:57:07;;;;;;;13.40;3.70;;;9.10;99.90;;;;;;4984332;28;20042;-70